Time;durP1;ratioP1;P1;durP2;ratioP2;P2;SDS_P1;SDS_P2;PMS_P1;PMS_P2;Temp;Humidity;BMP_temperature;BMP_pressure;BME280_temperature;BME280_humidity;BME280_pressure;Samples;Min_cycle;Max_cycle;Signal;HPM_P1;HPM_P2
2023/11/03 00:02:49;;;;;;;8.77;1.48;;;;;;;9.40;60.49;96921.09;10451441;28;20052;-78
2023/11/03 00:07:52;;;;;;;4.72;1.52;;;;;;;9.44;60.36;96916.16;10468873;28;20117;-80
2023/11/03 00:12:56;;;;;;;9.10;1.92;;;;;;;9.60;59.85;96923.84;10438301;28;20416;-81
2023/11/03 00:18:01;;;;;;;7.65;1.65;;;;;;;9.48;60.21;96930.78;10461646;28;20066;-80
2023/11/03 00:23:04;;;;;;;7.13;1.23;;;;;;;9.47;60.41;96946.06;10455524;28;20508;-79
2023/11/03 00:28:07;;;;;;;7.57;1.33;;;;;;;9.31;60.43;96954.44;10453624;28;20045;-79
2023/11/03 00:33:14;;;;;;;3.90;1.10;;;;;;;9.21;60.88;96954.78;10455105;28;20049;-77
2023/11/03 00:38:17;;;;;;;5.65;1.05;;;;;;;9.25;60.39;96987.38;10451491;28;20045;-81
2023/11/03 00:43:20;;;;;;;8.65;1.45;;;;;;;9.39;60.40;96991.75;10463790;28;20060;-78
2023/11/03 00:48:26;;;;;;;7.97;1.42;;;;;;;9.45;59.99;96974.88;10451117;28;20044;-81
2023/11/03 00:53:29;;;;;;;9.48;1.20;;;;;;;9.36;60.45;96981.44;10445466;28;20045;-80
2023/11/03 00:58:35;;;;;;;5.72;0.93;;;;;;;9.31;60.71;96999.13;10456325;28;20048;-80
2023/11/03 01:03:39;;;;;;;11.82;2.25;;;;;;;9.21;61.00;96991.47;10442065;28;20048;-80
2023/11/03 01:08:42;;;;;;;8.27;1.00;;;;;;;9.43;60.14;97001.03;10452557;28;20144;-79
2023/11/03 01:13:45;;;;;;;7.80;1.58;;;;;;;9.45;60.10;96992.81;10456502;28;20409;-79
2023/11/03 01:18:49;;;;;;;5.57;1.48;;;;;;;9.41;60.23;96987.03;10455919;28;20048;-81
2023/11/03 01:23:53;;;;;;;6.75;1.30;;;;;;;9.36;60.41;96997.50;10450396;28;20057;-81
2023/11/03 01:28:56;;;;;;;9.27;1.23;;;;;;;9.25;61.53;97001.59;10463686;28;20048;-79
2023/11/03 01:34:00;;;;;;;4.18;1.13;;;;;;;9.69;60.34;96991.47;10455219;28;20041;-79
2023/11/03 01:39:05;;;;;;;7.90;1.00;;;;;;;9.50;60.62;96993.03;10458788;28;20084;-78
2023/11/03 01:44:11;;;;;;;4.90;1.88;;;;;;;9.45;61.31;97001.66;10453726;28;20056;-79
2023/11/03 01:49:17;;;;;;;8.90;1.35;;;;;;;9.44;61.00;96999.22;10445399;28;20052;-79
2023/11/03 01:54:21;;;;;;;4.35;0.85;;;;;;;9.32;63.00;97006.97;10461295;28;20052;-81
2023/11/03 01:59:24;;;;;;;7.78;1.33;;;;;;;9.35;63.37;97006.59;10453204;28;20708;-78
2023/11/03 02:04:28;;;;;;;10.40;1.55;;;;;;;9.33;62.74;97014.00;10452994;28;20044;-79
2023/11/03 02:09:32;;;;;;;8.45;1.52;;;;;;;9.53;62.26;97005.22;10455509;28;20067;-80
2023/11/03 02:14:35;;;;;;;6.13;0.73;;;;;;;9.33;62.56;97005.94;10457683;28;20052;-80
2023/11/03 02:19:39;;;;;;;6.80;1.08;;;;;;;8.90;65.65;97062.31;10448040;28;20056;-81
2023/11/03 02:24:44;;;;;;;9.60;1.95;;;;;;;8.92;67.10;97013.94;10462666;28;20084;-79
2023/11/03 02:29:47;;;;;;;10.65;1.20;;;;;;;8.93;67.67;97020.94;10448222;28;20109;-80
2023/11/03 02:34:50;;;;;;;5.28;0.82;;;;;;;8.90;66.26;97000.75;10448854;28;20747;-81
2023/11/03 02:39:55;;;;;;;4.47;1.10;;;;;;;8.98;65.62;97034.56;10450952;28;20044;-80
2023/11/03 02:44:58;;;;;;;6.18;0.90;;;;;;;9.05;65.23;97014.00;10439956;28;20053;-79
2023/11/03 02:50:01;;;;;;;2.17;0.90;;;;;;;9.00;65.29;97005.78;10451648;28;20048;-80
2023/11/03 02:55:06;;;;;;;7.90;1.15;;;;;;;9.14;65.47;97012.03;10474721;28;20048;-78
2023/11/03 03:00:11;;;;;;;5.85;1.17;;;;;;;9.10;65.15;97013.44;10448674;28;20109;-79
2023/11/03 03:05:14;;;;;;;1.92;0.68;;;;;;;9.21;64.38;97047.69;10453032;28;20049;-81
2023/11/03 03:10:18;;;;;;;3.83;1.30;;;;;;;9.35;64.22;97005.72;10449814;28;20044;-80
2023/11/03 03:15:21;;;;;;;5.57;0.77;;;;;;;9.06;65.62;97011.16;10443961;28;20044;-79
2023/11/03 03:20:26;;;;;;;3.15;0.55;;;;;;;9.16;64.96;97018.84;10454929;28;21229;-81
2023/11/03 03:25:30;;;;;;;4.43;0.82;;;;;;;9.14;65.05;97030.78;10443183;28;20056;-79
2023/11/03 03:30:33;;;;;;;4.90;0.93;;;;;;;8.92;65.56;97036.19;10435941;28;20166;-79
2023/11/03 03:35:36;;;;;;;3.75;0.70;;;;;;;9.08;65.23;97031.53;10440867;28;20612;-81
2023/11/03 03:40:40;;;;;;;3.53;0.68;;;;;;;8.91;66.05;97036.38;10444073;28;20045;-79
2023/11/03 03:45:44;;;;;;;3.53;0.68;;;;;;;8.70;66.64;97037.25;10439683;28;20059;-80
2023/11/03 03:50:47;;;;;;;1.58;0.32;;;;;;;8.79;66.29;97052.13;10443056;28;20132;-79
2023/11/03 03:55:51;;;;;;;4.43;1.10;;;;;;;8.85;66.48;97054.03;10436365;28;20060;-80
2023/11/03 04:00:54;;;;;;;4.43;1.17;;;;;;;8.82;66.34;97033.03;10426263;28;20047;-80
2023/11/03 04:05:57;;;;;;;7.60;0.80;;;;;;;8.79;66.36;97044.13;10451718;28;20048;-79
2023/11/03 04:11:01;;;;;;;2.95;0.73;;;;;;;8.58;67.12;97027.09;10438276;28;20423;-79
2023/11/03 04:16:06;;;;;;;7.80;1.33;;;;;;;8.72;66.54;97038.72;10458224;28;20053;-79
2023/11/03 04:21:09;;;;;;;3.47;0.85;;;;;;;8.86;66.18;97034.28;10438437;28;20105;-80
2023/11/03 04:26:14;;;;;;;5.53;0.90;;;;;;;8.94;66.20;97044.00;10450841;28;20062;-80
2023/11/03 04:31:17;;;;;;;2.28;0.82;;;;;;;8.59;67.81;97044.78;10447170;28;20055;-78
2023/11/03 04:36:20;;;;;;;3.40;0.95;;;;;;;8.78;67.36;97042.47;10448537;28;20569;-79
2023/11/03 04:41:24;;;;;;;2.72;0.85;;;;;;;8.58;67.60;97055.66;10443779;28;20047;-80
2023/11/03 04:46:28;;;;;;;5.03;0.52;;;;;;;8.59;67.57;97049.31;10441210;28;20090;-80
2023/11/03 04:51:31;;;;;;;7.82;0.70;;;;;;;8.74;66.93;97041.19;10460529;28;20054;-81
2023/11/03 04:56:37;;;;;;;3.78;0.60;;;;;;;8.59;67.22;97027.91;10450718;28;20755;-78
2023/11/03 05:01:40;;;;;;;3.20;0.40;;;;;;;8.48;67.28;97033.78;10457386;28;20044;-79
2023/11/03 05:06:43;;;;;;;2.70;0.70;;;;;;;8.64;66.95;97041.53;10457093;28;20075;-75
2023/11/03 05:11:47;;;;;;;4.30;0.50;;;;;;;8.18;68.27;97063.28;10448262;28;20137;-78
2023/11/03 05:16:50;;;;;;;8.70;0.88;;;;;;;8.48;67.20;97036.47;10459378;28;20631;-79
2023/11/03 05:21:54;;;;;;;4.80;0.55;;;;;;;8.52;66.97;97038.53;10446217;28;20058;-79
2023/11/03 05:26:58;;;;;;;3.45;0.80;;;;;;;8.82;65.98;97054.44;10456459;28;20071;-79
2023/11/03 05:32:02;;;;;;;4.88;0.90;;;;;;;8.47;67.23;97064.22;10443910;28;20045;-81
2023/11/03 05:37:05;;;;;;;2.55;0.60;;;;;;;8.54;67.03;97051.72;10455189;28;20049;-82
2023/11/03 05:42:09;;;;;;;4.75;0.60;;;;;;;8.88;66.22;97063.53;10466891;28;20048;-80
2023/11/03 05:47:13;;;;;;;6.18;0.90;;;;;;;8.67;66.86;97069.75;10457628;28;20104;-80
2023/11/03 05:52:16;;;;;;;6.55;0.90;;;;;;;8.78;66.50;97091.47;10444537;28;20907;-80
2023/11/03 05:57:20;;;;;;;2.35;0.57;;;;;;;8.78;66.49;97077.25;10450882;28;20416;-81
2023/11/03 06:02:23;;;;;;;5.50;1.08;;;;;;;8.79;66.40;97095.78;10462716;28;20055;-80
2023/11/03 06:07:26;;;;;;;5.55;1.38;;;;;;;8.58;67.04;97087.75;10449174;28;20059;-81
2023/11/03 06:12:31;;;;;;;2.67;0.70;;;;;;;8.90;66.54;97094.44;10453804;28;20455;-80
2023/11/03 06:17:34;;;;;;;1.02;0.73;;;;;;;8.85;66.56;97094.16;10455648;28;20078;-79
2023/11/03 06:22:36;;;;;;;2.95;0.47;;;;;;;8.81;66.50;97099.09;10465826;28;20044;-80
2023/11/03 06:27:41;;;;;;;2.13;0.60;;;;;;;8.78;66.33;97118.22;10459299;28;20057;-81
2023/11/03 06:32:43;;;;;;;3.22;0.75;;;;;;;8.73;66.75;97114.47;10455684;28;20043;-80
2023/11/03 06:37:48;;;;;;;1.50;0.60;;;;;;;8.61;66.66;97139.06;10449968;28;20179;-78
2023/11/03 06:42:52;;;;;;;4.07;1.05;;;;;;;8.54;67.22;97130.13;10451576;28;20052;-80
2023/11/03 06:47:55;;;;;;;5.10;0.90;;;;;;;8.74;67.17;97137.50;10451021;28;20043;-81
2023/11/03 06:52:58;;;;;;;1.60;0.55;;;;;;;8.66;67.33;97143.00;10459966;28;21241;-80
2023/11/03 06:58:02;;;;;;;2.17;0.50;;;;;;;8.89;66.55;97156.19;10439821;28;20048;-80
2023/11/03 07:03:05;;;;;;;8.68;0.77;;;;;;;8.89;66.48;97150.84;10444105;28;20147;-80
2023/11/03 07:08:08;;;;;;;7.75;1.55;;;;;;;8.75;67.42;97165.91;10456558;28;20106;-79
2023/11/03 07:13:12;;;;;;;6.53;1.02;;;;;;;8.57;67.95;97164.50;10458104;28;20487;-79
2023/11/03 07:18:16;;;;;;;3.75;0.90;;;;;;;8.62;67.84;97155.94;10456810;28;20049;-79
2023/11/03 07:23:21;;;;;;;4.15;0.90;;;;;;;8.96;66.86;97162.41;10467973;28;20080;-77
2023/11/03 07:28:25;;;;;;;7.10;1.23;;;;;;;8.92;67.27;97172.69;10457458;28;20044;-82
2023/11/03 07:33:28;;;;;;;1.65;0.70;;;;;;;8.88;66.72;97166.03;10457084;28;20049;-81
2023/11/03 07:38:32;;;;;;;5.82;1.48;;;;;;;8.67;67.81;97172.25;10437602;28;20044;-80
2023/11/03 07:43:37;;;;;;;8.15;2.15;;;;;;;8.83;67.60;97176.50;10457048;28;20055;-81
2023/11/03 07:48:41;;;;;;;5.85;1.27;;;;;;;8.87;68.26;97176.97;10485732;28;20059;-81
2023/11/03 07:53:44;;;;;;;6.65;1.17;;;;;;;9.29;66.21;97181.44;10448347;28;20055;-79
2023/11/03 07:58:49;;;;;;;5.93;0.90;;;;;;;8.71;68.46;97192.22;10452250;28;20048;-83
2023/11/03 08:03:52;;;;;;;4.72;1.20;;;;;;;8.66;68.32;97208.03;10458395;28;20612;-82
2023/11/03 08:08:55;;;;;;;5.47;1.35;;;;;;;8.75;68.82;97211.41;10461011;28;20547;-82
2023/11/03 08:13:59;;;;;;;6.32;1.55;;;;;;;9.07;67.52;97215.44;10454283;28;20052;-80
2023/11/03 08:19:03;;;;;;;2.67;1.30;;;;;;;8.86;67.78;97245.72;10449667;28;20502;-79
2023/11/03 08:24:08;;;;;;;10.20;1.98;;;;;;;9.02;68.27;97249.97;10454603;27;20052;-79
2023/11/03 08:29:12;;;;;;;1.20;0.80;;;;;;;8.67;69.32;97275.75;10462780;28;20048;-82
2023/11/03 08:34:18;;;;;;;5.07;1.02;;;;;;;8.57;70.35;97286.75;10449597;28;20045;-82
2023/11/03 08:39:23;;;;;;;10.88;1.70;;;;;;;8.76;72.14;97298.72;10448204;28;20048;-80
2023/11/03 08:44:33;;;;;;;9.95;1.75;;;;;;;8.30;80.03;97297.06;10458516;28;20141;-81
2023/11/03 08:49:37;;;;;;;10.57;2.53;;;;;;;7.66;87.34;97302.06;10455271;28;20044;-80
2023/11/03 08:54:40;;;;;;;10.48;1.98;;;;;;;7.52;92.50;97305.53;10445486;28;20045;-81
2023/11/03 08:59:47;;;;;;;9.27;1.55;;;;;;;7.45;94.78;97330.28;10450969;28;20055;-81
2023/11/03 09:04:50;;;;;;;9.27;2.20;;;;;;;7.45;98.30;97318.75;10447897;28;20135;-79
2023/11/03 09:09:53;;;;;;;18.88;2.08;;;;;;;7.06;100.00;97333.06;10443250;28;20052;-80
2023/11/03 09:14:58;;;;;;;7.00;2.17;;;;;;;6.97;100.00;97328.78;10449827;28;20054;-79
2023/11/03 09:20:01;;;;;;;10.27;2.10;;;;;;;7.20;100.00;97336.81;10453672;28;20164;-81
2023/11/03 09:25:04;;;;;;;12.23;2.28;;;;;;;7.45;100.00;97343.63;10450917;28;20044;-82
2023/11/03 09:30:10;;;;;;;12.60;2.15;;;;;;;7.19;100.00;97352.00;10480035;28;20379;-77
2023/11/03 09:35:13;;;;;;;9.75;1.58;;;;;;;6.91;100.00;97356.16;10457004;28;20088;-79
2023/11/03 09:40:20;;;;;;;7.63;2.05;;;;;;;7.10;100.00;97355.69;10451822;28;20205;-78
2023/11/03 09:45:27;;;;;;;10.73;2.08;;;;;;;7.31;100.00;97357.75;10443439;28;20064;-79
2023/11/03 09:50:30;;;;;;;11.00;2.75;;;;;;;7.21;100.00;97366.00;10444778;28;20048;-79
2023/11/03 09:55:34;;;;;;;10.43;1.85;;;;;;;7.62;100.00;97363.03;10444283;28;20041;-78
2023/11/03 10:00:42;;;;;;;8.65;1.58;;;;;;;7.62;100.00;97346.16;10444949;28;20183;-80
2023/11/03 10:05:45;;;;;;;10.10;1.73;;;;;;;7.60;100.00;97349.03;10439491;28;20535;-80
2023/11/03 10:10:48;;;;;;;6.28;1.90;;;;;;;7.95;98.87;97341.38;10440348;28;20615;-77
2023/11/03 10:15:53;;;;;;;12.02;2.40;;;;;;;8.52;96.24;97372.88;10443790;28;20051;-77
2023/11/03 10:20:57;;;;;;;9.63;1.88;;;;;;;8.73;94.49;97361.44;10453994;28;20574;-79
2023/11/03 10:26:01;;;;;;;15.90;2.22;;;;;;;8.82;91.15;97357.66;10453457;28;20939;-75
2023/11/03 10:31:06;;;;;;;6.18;1.60;;;;;;;9.25;89.29;97359.59;10455731;28;20538;-77
2023/11/03 10:36:09;;;;;;;16.70;1.40;;;;;;;9.26;84.23;97364.75;10450916;28;20059;-79
2023/11/03 10:41:13;;;;;;;10.52;1.30;;;;;;;9.26;86.63;97355.91;10440181;28;20044;-78
2023/11/03 10:46:23;;;;;;;14.05;1.70;;;;;;;8.87;87.09;97356.28;10439873;28;20044;-79
2023/11/03 10:51:32;;;;;;;9.23;2.03;;;;;;;9.28;84.75;97349.31;10442670;28;21004;-80
2023/11/03 10:56:36;;;;;;;6.70;1.45;;;;;;;9.55;81.09;97346.94;10438490;28;20041;-77
2023/11/03 11:02:10;;;;;;;6.65;2.17;;;;;;;10.43;77.83;97349.28;10444275;28;20076;-77
2023/11/03 11:07:17;;;;;;;11.13;2.38;;;;;;;11.26;75.30;97344.72;10444063;28;20056;-79
2023/11/03 11:12:20;;;;;;;8.95;1.77;;;;;;;11.25;69.10;97343.91;10440044;28;20425;-78
2023/11/03 11:17:36;;;;;;;4.70;1.13;;;;;;;12.16;63.66;97355.97;10440195;28;20037;-78
2023/11/03 11:22:41;;;;;;;5.97;1.60;;;;;;;12.12;65.05;97358.28;10438291;28;20044;-78
2023/11/03 11:27:49;;;;;;;5.53;1.67;;;;;;;11.78;64.34;97377.28;10432440;28;20075;-78
2023/11/03 11:32:55;;;;;;;12.57;1.63;;;;;;;12.37;61.88;97390.78;10431889;28;20060;-80
2023/11/03 11:37:59;;;;;;;4.57;1.20;;;;;;;12.93;57.65;97380.50;10433345;28;20041;-79
2023/11/03 11:43:02;;;;;;;9.20;1.75;;;;;;;12.72;59.24;97384.28;10444849;28;20055;-78
2023/11/03 11:48:23;;;;;;;9.18;1.85;;;;;;;13.28;58.11;97386.38;10454656;28;20052;-78
2023/11/03 11:53:28;;;;;;;6.10;2.42;;;;;;;13.41;56.79;97390.88;10439025;28;20203;-80
2023/11/03 11:58:32;;;;;;;6.22;1.90;;;;;;;12.90;58.29;97402.47;10437482;28;20040;-82
2023/11/03 12:03:39;;;;;;;7.57;1.50;;;;;;;11.83;59.05;97409.78;10451909;28;20542;-78
2023/11/03 12:08:44;;;;;;;10.23;2.00;;;;;;;11.72;62.06;97403.94;10441045;28;20201;-80
2023/11/03 12:13:47;;;;;;;11.88;1.90;;;;;;;11.43;62.00;97417.72;10441323;28;21185;-81
2023/11/03 12:18:52;;;;;;;11.40;1.70;;;;;;;11.16;63.25;97419.47;10436184;28;20048;-79
2023/11/03 12:23:57;;;;;;;13.68;2.20;;;;;;;11.36;61.23;97447.28;10449212;28;20708;-82
2023/11/03 12:29:26;;;;;;;6.90;2.13;;;;;;;11.27;61.03;97445.78;10447510;28;20065;-80
2023/11/03 12:34:31;;;;;;;9.73;2.22;;;;;;;11.51;61.22;97436.34;10441972;28;20052;-80
2023/11/03 12:39:47;;;;;;;10.00;2.05;;;;;;;11.42;61.77;97429.50;10447558;28;20056;-80
2023/11/03 12:44:56;;;;;;;8.40;1.50;;;;;;;11.41;61.74;97414.41;10437627;28;20040;-81
2023/11/03 12:50:17;;;;;;;7.25;1.55;;;;;;;11.90;59.70;97429.41;10449929;28;20068;-83
2023/11/03 12:55:23;;;;;;;9.98;1.85;;;;;;;11.58;61.03;97436.41;10444726;28;20464;-79
2023/11/03 13:00:31;;;;;;;8.77;1.40;;;;;;;10.63;61.60;97435.28;10443556;28;20048;-80
2023/11/03 13:05:36;;;;;;;9.63;1.17;;;;;;;10.61;63.21;97446.19;10443929;28;20045;-81
2023/11/03 13:10:40;;;;;;;9.63;1.77;;;;;;;10.78;63.49;97439.53;10445109;28;20044;-79
2023/11/03 13:15:43;;;;;;;7.32;1.83;;;;;;;10.79;62.50;97441.16;10449114;28;21186;-77
2023/11/03 13:20:47;;;;;;;10.07;2.17;;;;;;;10.65;61.92;97454.72;10453123;28;20047;-81
2023/11/03 13:25:51;;;;;;;7.07;1.50;;;;;;;10.55;62.00;97450.50;10455094;28;20131;-79
2023/11/03 13:30:56;;;;;;;9.10;1.73;;;;;;;11.14;60.90;97460.00;10458454;28;20427;-81
2023/11/03 13:36:01;;;;;;;10.38;1.83;;;;;;;10.73;60.52;97458.06;10450833;28;20066;-80
2023/11/03 13:41:04;;;;;;;4.53;0.95;;;;;;;10.79;60.43;97472.56;10449060;28;20067;-80
2023/11/03 13:46:09;;;;;;;5.53;1.83;;;;;;;10.56;61.58;97479.00;10442685;28;20052;-78
2023/11/03 13:51:14;;;;;;;9.88;1.50;;;;;;;11.17;60.55;97477.56;10454976;28;20523;-82
2023/11/03 13:56:17;;;;;;;9.50;1.50;;;;;;;11.48;60.58;97490.53;10449582;28;20568;-79
2023/11/03 14:01:20;;;;;;;7.57;1.58;;;;;;;11.82;59.41;97483.38;10443006;28;20052;-80
2023/11/03 14:06:24;;;;;;;9.75;2.08;;;;;;;12.08;58.06;97474.56;10436914;28;20060;-81
2023/11/03 14:11:28;;;;;;;11.68;1.95;;;;;;;12.13;58.99;97475.59;10441146;28;20055;-81
2023/11/03 14:16:31;;;;;;;8.68;1.30;;;;;;;11.22;58.69;97469.75;10440224;28;20053;-79
2023/11/03 14:21:41;;;;;;;9.63;1.75;;;;;;;11.15;59.93;97468.88;10454077;28;20637;-81
2023/11/03 14:26:47;;;;;;;12.30;1.75;;;;;;;10.91;62.80;97479.03;10441997;28;20185;-83
2023/11/03 14:31:51;;;;;;;10.82;1.85;;;;;;;10.86;62.84;97476.13;10447107;28;20044;-82
2023/11/03 14:36:55;;;;;;;7.57;1.70;;;;;;;10.91;62.03;97489.75;10448038;28;20533;-81
2023/11/03 14:41:58;;;;;;;5.65;1.50;;;;;;;11.20;61.99;97488.75;10453074;28;21009;-81
2023/11/03 14:47:01;;;;;;;5.20;1.60;;;;;;;11.24;61.62;97495.38;10450258;28;20120;-79
2023/11/03 14:52:07;;;;;;;12.23;3.17;;;;;;;11.08;62.60;97492.13;10443674;27;20055;-79
2023/11/03 14:57:10;;;;;;;10.48;1.90;;;;;;;10.81;63.13;97486.63;10438651;28;20076;-82
2023/11/03 15:02:13;;;;;;;9.60;1.83;;;;;;;10.76;63.77;97497.94;10441074;28;20048;-80
2023/11/03 15:07:21;;;;;;;9.82;2.20;;;;;;;10.30;65.93;97498.38;10440505;28;20052;-80
2023/11/03 15:12:24;;;;;;;8.10;1.58;;;;;;;10.14;66.01;97504.00;10447532;28;20044;-80
2023/11/03 15:17:28;;;;;;;9.23;1.58;;;;;;;10.46;65.64;97504.53;10453335;28;20048;-79
2023/11/03 15:22:32;;;;;;;13.75;1.73;;;;;;;9.91;67.67;97513.06;10433987;28;20052;-79
2023/11/03 15:27:35;;;;;;;12.35;2.17;;;;;;;9.81;68.67;97525.91;10453847;28;20044;-81
2023/11/03 15:32:39;;;;;;;7.03;1.33;;;;;;;9.47;69.74;97538.09;10442775;28;20059;-80
2023/11/03 15:37:43;;;;;;;8.65;1.55;;;;;;;9.48;69.96;97544.28;10465997;28;20174;-82
2023/11/03 15:42:47;;;;;;;12.88;1.48;;;;;;;9.76;69.23;97539.03;10451184;28;20589;-81
2023/11/03 15:47:50;;;;;;;10.38;1.65;;;;;;;9.42;70.43;97561.94;10454139;28;20067;-81
2023/11/03 15:52:55;;;;;;;6.40;1.33;;;;;;;9.49;70.42;97562.84;10452859;28;20052;-83
2023/11/03 15:57:58;;;;;;;8.07;2.00;;;;;;;9.48;70.55;97571.88;10473348;28;20934;-80
2023/11/03 16:03:01;;;;;;;19.73;2.03;;;;;;;9.60;69.47;97583.00;10450619;28;20048;-82
2023/11/03 16:08:08;;;;;;;10.77;1.92;;;;;;;9.70;69.63;97594.22;10449635;28;20539;-81
2023/11/03 16:13:13;;;;;;;7.65;1.60;;;;;;;9.63;69.56;97611.28;10449252;28;20914;-82
2023/11/03 16:18:17;;;;;;;11.20;1.75;;;;;;;9.76;68.98;97621.31;10474854;28;20053;-77
2023/11/03 16:23:21;;;;;;;6.68;1.88;;;;;;;9.39;70.07;97625.75;10469577;28;20052;-80
2023/11/03 16:28:29;;;;;;;8.90;2.20;;;;;;;9.75;68.59;97627.69;10441517;28;20056;-81
2023/11/03 16:33:32;;;;;;;8.43;1.85;;;;;;;9.82;68.58;97636.66;10455371;28;20139;-81
2023/11/03 16:38:40;;;;;;;11.82;2.15;;;;;;;9.87;68.13;97640.50;10439202;28;20068;-79
2023/11/03 16:43:44;;;;;;;8.48;1.60;;;;;;;9.58;68.95;97637.78;10446411;28;20044;-79
2023/11/03 16:48:50;;;;;;;7.38;1.48;;;;;;;9.59;68.30;97634.06;10454117;28;20048;-77
2023/11/03 16:53:54;;;;;;;9.63;2.22;;;;;;;9.72;68.04;97635.09;10454382;28;20044;-83
2023/11/03 16:58:58;;;;;;;10.93;2.13;;;;;;;9.63;67.59;97643.44;10457656;28;20523;-79
2023/11/03 17:04:01;;;;;;;7.55;2.38;;;;;;;9.62;66.80;97644.44;10458666;28;20060;-79
2023/11/03 17:09:05;;;;;;;8.43;1.40;;;;;;;9.67;66.92;97661.63;10444489;28;20048;-81
2023/11/03 17:14:08;;;;;;;5.88;2.47;;;;;;;9.65;67.02;97661.00;10457224;28;20045;-81
2023/11/03 17:19:12;;;;;;;6.30;1.60;;;;;;;9.78;66.08;97659.50;10463952;28;20056;-82
2023/11/03 17:24:16;;;;;;;7.88;2.35;;;;;;;9.86;65.76;97657.56;10463084;28;20049;-84
2023/11/03 17:29:19;;;;;;;9.80;2.53;;;;;;;9.70;66.77;97663.91;10461925;28;20051;-82
2023/11/03 17:34:22;;;;;;;10.32;2.15;;;;;;;9.62;67.96;97661.34;10450402;28;20056;-80
2023/11/03 17:39:27;;;;;;;11.10;2.08;;;;;;;9.48;69.09;97665.66;10452297;28;20532;-82
2023/11/03 17:44:30;;;;;;;10.20;2.10;;;;;;;9.57;69.19;97662.91;10452948;28;20059;-79
2023/11/03 17:49:33;;;;;;;11.55;3.05;;;;;;;9.03;71.70;97667.44;10449481;28;20049;-80
2023/11/03 17:54:38;;;;;;;7.30;2.13;;;;;;;9.32;70.47;97665.00;10448495;28;20186;-78
2023/11/03 17:59:41;;;;;;;6.93;2.08;;;;;;;9.19;70.40;97676.34;10454650;28;20061;-82
2023/11/03 18:04:44;;;;;;;13.25;2.58;;;;;;;9.19;69.90;97674.50;10444691;28;20526;-79
2023/11/03 18:09:48;;;;;;;8.23;2.42;;;;;;;9.08;70.28;97679.44;10447465;28;20074;-80
2023/11/03 18:14:52;;;;;;;12.90;2.15;;;;;;;9.06;70.37;97680.47;10451371;28;20044;-81
2023/11/03 18:19:55;;;;;;;9.43;1.75;;;;;;;8.72;72.07;97682.72;10439412;28;20056;-82
2023/11/03 18:25:00;;;;;;;10.05;2.38;;;;;;;8.49;72.15;97674.72;10443973;28;20056;-81
2023/11/03 18:30:04;;;;;;;11.52;2.47;;;;;;;8.50;71.28;97684.38;10447061;28;20052;-81
2023/11/03 18:35:09;;;;;;;5.40;1.80;;;;;;;8.36;70.92;97693.97;10455646;28;20055;-80
2023/11/03 18:40:16;;;;;;;9.68;2.83;;;;;;;8.50;70.64;97687.91;10453968;28;20528;-81
2023/11/03 18:45:22;;;;;;;15.00;2.75;;;;;;;8.52;70.83;97679.69;10454090;28;20087;-77
2023/11/03 18:50:27;;;;;;;9.93;2.60;;;;;;;8.35;72.33;97687.78;10460383;28;20049;-78
2023/11/03 18:55:35;;;;;;;11.73;1.80;;;;;;;8.12;73.47;97687.75;10449876;28;20048;-75
2023/11/03 19:00:40;;;;;;;12.95;3.38;;;;;;;8.09;74.04;97677.41;10452678;28;20067;-80
2023/11/03 19:05:46;;;;;;;14.23;3.58;;;;;;;8.21;73.42;97682.38;10450700;28;20045;-81
2023/11/03 19:11:11;;;;;;;7.72;2.25;;;;;;;8.20;72.24;97676.19;10447401;28;20041;-79
2023/11/03 19:16:14;;;;;;;12.88;2.72;;;;;;;7.94;71.99;97693.31;10447392;28;20052;-78
2023/11/03 19:21:17;;;;;;;7.53;1.92;;;;;;;7.79;71.19;97702.22;10450267;28;20044;-80
2023/11/03 19:26:21;;;;;;;6.93;1.55;;;;;;;8.01;69.60;97706.00;10451241;28;20151;-81
2023/11/03 19:31:25;;;;;;;4.75;1.60;;;;;;;7.92;69.20;97705.19;10443971;28;20048;-80
2023/11/03 19:36:28;;;;;;;8.93;2.13;;;;;;;7.97;69.09;97723.41;10441049;28;20051;-80
2023/11/03 19:41:32;;;;;;;6.72;1.35;;;;;;;7.94;68.70;97724.56;10439714;28;20947;-80
2023/11/03 19:46:35;;;;;;;5.90;1.45;;;;;;;7.63;69.18;97729.84;10446017;28;20048;-80
2023/11/03 19:51:38;;;;;;;6.95;2.15;;;;;;;7.89;69.08;97730.41;10444287;28;20048;-79
2023/11/03 19:56:42;;;;;;;5.25;1.67;;;;;;;7.66;69.31;97740.19;10431893;28;20148;-80
2023/11/03 20:01:45;;;;;;;6.43;1.60;;;;;;;7.62;69.61;97754.88;10428321;28;20071;-79
2023/11/03 20:06:48;;;;;;;7.60;1.38;;;;;;;7.89;68.19;97750.97;10447230;28;20071;-78
2023/11/03 20:11:53;;;;;;;4.78;1.48;;;;;;;7.80;68.47;97762.69;10441479;28;20036;-80
2023/11/03 20:16:56;;;;;;;9.20;1.80;;;;;;;7.83;67.57;97755.16;10455824;28;21204;-79
2023/11/03 20:22:00;;;;;;;9.52;1.70;;;;;;;7.75;67.80;97752.50;10448769;28;20427;-80
2023/11/03 20:27:04;;;;;;;9.20;1.90;;;;;;;7.72;67.17;97769.72;10442297;28;21444;-80
2023/11/03 20:32:07;;;;;;;10.82;1.50;;;;;;;7.76;66.51;97758.69;10447997;28;20044;-79
2023/11/03 20:37:10;;;;;;;7.03;1.40;;;;;;;7.58;67.00;97767.75;10459175;28;20060;-78
2023/11/03 20:42:15;;;;;;;5.03;1.80;;;;;;;7.56;67.17;97761.72;10448004;28;20040;-78
2023/11/03 20:47:19;;;;;;;5.25;1.55;;;;;;;7.54;66.87;97769.06;10445750;28;20139;-81
2023/11/03 20:52:22;;;;;;;8.90;2.25;;;;;;;7.44;68.11;97753.22;10453930;28;20037;-80
2023/11/03 20:57:26;;;;;;;10.38;2.13;;;;;;;7.16;68.74;97755.41;10481297;28;20055;-80
2023/11/03 21:02:30;;;;;;;9.52;1.73;;;;;;;7.22;68.27;97748.59;10457079;28;20073;-81
2023/11/03 21:07:33;;;;;;;8.20;1.55;;;;;;;7.40;67.78;97748.38;10443048;28;20604;-82
2023/11/03 21:12:37;;;;;;;10.43;1.88;;;;;;;7.14;68.83;97748.56;10439805;28;20041;-80
2023/11/03 21:17:40;;;;;;;6.32;1.58;;;;;;;7.01;68.89;97760.56;10437273;28;20067;-79
2023/11/03 21:22:44;;;;;;;15.60;2.42;;;;;;;7.05;68.78;97763.75;10432957;28;20056;-81
2023/11/03 21:27:48;;;;;;;5.38;1.55;;;;;;;7.07;68.32;97767.06;10438823;28;20044;-81
2023/11/03 21:32:51;;;;;;;2.92;1.38;;;;;;;6.89;69.38;97774.41;10450652;28;20052;-82
2023/11/03 21:37:54;;;;;;;9.77;1.77;;;;;;;6.89;68.88;97764.56;10455047;28;20049;-79
2023/11/03 21:42:58;;;;;;;6.47;1.23;;;;;;;6.89;68.96;97767.25;10455656;28;20107;-81
2023/11/03 21:48:01;;;;;;;5.05;1.45;;;;;;;7.06;68.22;97776.09;10457303;28;20064;-81
2023/11/03 21:53:04;;;;;;;11.85;1.65;;;;;;;7.16;67.87;97763.44;10450873;28;20133;-82
2023/11/03 21:58:08;;;;;;;6.85;1.92;;;;;;;7.06;68.26;97784.94;10451880;28;20048;-82
2023/11/03 22:03:11;;;;;;;6.60;1.42;;;;;;;7.18;67.88;97788.09;10444577;28;20049;-80
2023/11/03 22:08:14;;;;;;;7.13;1.58;;;;;;;7.21;67.55;97781.59;10451361;28;20061;-81
2023/11/03 22:13:19;;;;;;;5.40;1.42;;;;;;;7.40;67.48;97786.59;10450963;28;20048;-78
2023/11/03 22:18:22;;;;;;;6.00;1.63;;;;;;;7.30;67.33;97772.59;10456940;28;20056;-80
2023/11/03 22:23:25;;;;;;;5.55;1.13;;;;;;;7.01;68.20;97781.09;10460347;28;20775;-80
2023/11/03 22:28:29;;;;;;;4.80;1.52;;;;;;;7.17;68.26;97769.59;10464057;28;20609;-79
2023/11/03 22:33:32;;;;;;;3.83;1.58;;;;;;;7.28;67.41;97777.28;10442019;28;20045;-80
2023/11/03 22:38:36;;;;;;;5.55;1.50;;;;;;;7.25;67.30;97778.44;10443593;28;20044;-79
2023/11/03 22:43:43;;;;;;;7.95;1.35;;;;;;;7.33;67.70;97779.44;10441535;28;20044;-80
2023/11/03 22:48:46;;;;;;;8.75;1.42;;;;;;;7.35;67.64;97790.78;10445661;28;20059;-80
2023/11/03 22:53:49;;;;;;;5.10;1.45;;;;;;;7.29;68.05;97778.94;10448964;28;20041;-78
2023/11/03 22:58:54;;;;;;;10.57;1.73;;;;;;;7.17;68.52;97788.28;10448680;28;20040;-81
2023/11/03 23:03:57;;;;;;;2.33;1.30;;;;;;;6.96;69.56;97775.41;10446488;28;20057;-79
2023/11/03 23:09:00;;;;;;;5.13;1.42;;;;;;;7.09;68.95;97789.09;10446163;28;20045;-80
2023/11/03 23:14:05;;;;;;;5.63;1.20;;;;;;;6.99;69.18;97777.75;10439426;28;20045;-81
2023/11/03 23:19:08;;;;;;;8.80;2.30;;;;;;;7.15;69.15;97782.28;10437242;28;20040;-80
2023/11/03 23:24:13;;;;;;;8.88;2.67;;;;;;;7.11;69.13;97779.09;10433450;28;20044;-80
2023/11/03 23:29:17;;;;;;;7.65;2.70;;;;;;;7.21;69.13;97778.94;10438395;28;20063;-81
2023/11/03 23:34:20;;;;;;;5.13;1.25;;;;;;;7.11;69.44;97779.09;10437383;28;21007;-79
2023/11/03 23:39:23;;;;;;;4.97;1.42;;;;;;;7.03;69.76;97777.25;10437699;28;20995;-78
2023/11/03 23:44:27;;;;;;;5.10;1.20;;;;;;;6.97;69.65;97779.75;10432836;28;20659;-80